sensor_id;sensor_type;location;lat;lon;timestamp;pressure;altitude;pressure_sealevel;temperature;humidity
17311;BME280;8773;43.300;0.394;2023-04-01T00:00:54;100132.22;;;13.48;52.93
17311;BME280;8773;43.300;0.394;2023-04-01T00:03:25;100128.16;;;13.19;54.12
17311;BME280;8773;43.300;0.394;2023-04-01T00:05:54;100121.31;;;13.41;53.44
17311;BME280;8773;43.300;0.394;2023-04-01T00:08:24;100122.16;;;13.50;52.87
17311;BME280;8773;43.300;0.394;2023-04-01T00:10:53;100121.94;;;13.27;53.08
17311;BME280;8773;43.300;0.394;2023-04-01T00:13:21;100126.13;;;13.13;52.96
17311;BME280;8773;43.300;0.394;2023-04-01T00:15:49;100129.44;;;13.07;52.91
17311;BME280;8773;43.300;0.394;2023-04-01T00:18:18;100126.66;;;13.25;53.06
17311;BME280;8773;43.300;0.394;2023-04-01T00:20:47;100126.66;;;13.25;53.11
17311;BME280;8773;43.300;0.394;2023-04-01T00:23:15;100131.97;;;13.08;53.25
17311;BME280;8773;43.300;0.394;2023-04-01T00:25:46;100131.19;;;13.32;53.88
17311;BME280;8773;43.300;0.394;2023-04-01T00:28:15;100131.53;;;13.37;55.05
17311;BME280;8773;43.300;0.394;2023-04-01T00:30:47;100135.34;;;13.19;57.01
17311;BME280;8773;43.300;0.394;2023-04-01T00:33:16;100138.91;;;13.35;57.18
17311;BME280;8773;43.300;0.394;2023-04-01T00:35:44;100131.38;;;13.47;57.00
17311;BME280;8773;43.300;0.394;2023-04-01T00:38:12;100137.78;;;13.62;56.74
17311;BME280;8773;43.300;0.394;2023-04-01T00:40:42;100133.94;;;13.73;56.37
17311;BME280;8773;43.300;0.394;2023-04-01T00:43:14;100141.59;;;13.44;57.04
17311;BME280;8773;43.300;0.394;2023-04-01T00:45:45;100142.13;;;13.47;55.74
17311;BME280;8773;43.300;0.394;2023-04-01T00:48:16;100134.41;;;13.52;55.65
17311;BME280;8773;43.300;0.394;2023-04-01T00:50:48;100136.09;;;13.53;55.24
17311;BME280;8773;43.300;0.394;2023-04-01T00:53:19;100134.69;;;13.17;56.56
17311;BME280;8773;43.300;0.394;2023-04-01T00:55:51;100125.53;;;12.93;56.73
17311;BME280;8773;43.300;0.394;2023-04-01T00:58:24;100125.16;;;12.88;57.26
17311;BME280;8773;43.300;0.394;2023-04-01T01:00:54;100132.13;;;12.65;57.27
17311;BME280;8773;43.300;0.394;2023-04-01T01:03:23;100122.28;;;12.73;57.18
17311;BME280;8773;43.300;0.394;2023-04-01T01:06:20;100113.69;;;12.62;57.33
17311;BME280;8773;43.300;0.394;2023-04-01T01:09:02;100131.63;;;12.69;57.36
17311;BME280;8773;43.300;0.394;2023-04-01T01:11:37;100128.16;;;12.77;57.23
17311;BME280;8773;43.300;0.394;2023-04-01T01:14:19;100128.69;;;12.89;57.06
17311;BME280;8773;43.300;0.394;2023-04-01T01:16:53;100129.00;;;12.52;58.76
17311;BME280;8773;43.300;0.394;2023-04-01T01:19:46;100127.31;;;12.77;57.95
17311;BME280;8773;43.300;0.394;2023-04-01T01:22:36;100122.84;;;12.93;56.99
17311;BME280;8773;43.300;0.394;2023-04-01T01:25:22;100118.69;;;12.99;57.65
17311;BME280;8773;43.300;0.394;2023-04-01T01:27:59;100102.06;;;12.87;57.58
17311;BME280;8773;43.300;0.394;2023-04-01T01:30:39;100113.41;;;12.73;57.23
17311;BME280;8773;43.300;0.394;2023-04-01T01:33:24;100107.00;;;12.66;57.54
17311;BME280;8773;43.300;0.394;2023-04-01T01:35:59;100110.00;;;12.63;58.45
17311;BME280;8773;43.300;0.394;2023-04-01T01:38:31;100111.09;;;12.86;57.13
17311;BME280;8773;43.300;0.394;2023-04-01T01:41:02;100103.06;;;12.86;57.34
17311;BME280;8773;43.300;0.394;2023-04-01T01:43:33;100106.22;;;12.73;57.86
17311;BME280;8773;43.300;0.394;2023-04-01T01:46:08;100109.88;;;12.72;57.34
17311;BME280;8773;43.300;0.394;2023-04-01T01:48:38;100102.69;;;12.73;57.77
17311;BME280;8773;43.300;0.394;2023-04-01T01:51:10;100105.03;;;12.76;57.53
17311;BME280;8773;43.300;0.394;2023-04-01T01:53:38;100098.59;;;12.61;57.56
17311;BME280;8773;43.300;0.394;2023-04-01T01:56:06;100094.81;;;12.71;57.40
17311;BME280;8773;43.300;0.394;2023-04-01T01:58:37;100083.94;;;12.47;57.71
17311;BME280;8773;43.300;0.394;2023-04-01T02:01:12;100090.25;;;12.38;57.95
17311;BME280;8773;43.300;0.394;2023-04-01T02:03:42;100088.06;;;12.33;57.83
17311;BME280;8773;43.300;0.394;2023-04-01T02:06:18;100089.09;;;12.40;57.50
17311;BME280;8773;43.300;0.394;2023-04-01T02:08:50;100089.22;;;12.31;58.33
17311;BME280;8773;43.300;0.394;2023-04-01T02:11:25;100091.97;;;12.47;57.08
17311;BME280;8773;43.300;0.394;2023-04-01T02:13:58;100083.69;;;12.58;56.91
17311;BME280;8773;43.300;0.394;2023-04-01T02:16:33;100087.69;;;12.54;57.76
17311;BME280;8773;43.300;0.394;2023-04-01T02:19:04;100093.50;;;12.50;57.74
17311;BME280;8773;43.300;0.394;2023-04-01T02:21:39;100079.88;;;12.35;58.41
17311;BME280;8773;43.300;0.394;2023-04-01T02:24:12;100088.13;;;12.50;58.15
17311;BME280;8773;43.300;0.394;2023-04-01T02:26:41;100083.53;;;12.60;57.75
17311;BME280;8773;43.300;0.394;2023-04-01T02:29:11;100085.22;;;12.61;57.84
17311;BME280;8773;43.300;0.394;2023-04-01T02:31:40;100085.84;;;12.29;58.00
17311;BME280;8773;43.300;0.394;2023-04-01T02:34:09;100090.09;;;12.39;57.75
17311;BME280;8773;43.300;0.394;2023-04-01T02:36:39;100084.16;;;12.54;57.85
17311;BME280;8773;43.300;0.394;2023-04-01T02:39:07;100082.53;;;12.61;57.93
17311;BME280;8773;43.300;0.394;2023-04-01T02:41:38;100071.16;;;12.33;58.10
17311;BME280;8773;43.300;0.394;2023-04-01T02:44:10;100063.06;;;12.25;59.24
17311;BME280;8773;43.300;0.394;2023-04-01T02:46:38;100067.16;;;12.37;59.30
17311;BME280;8773;43.300;0.394;2023-04-01T02:49:06;100072.78;;;12.52;58.77
17311;BME280;8773;43.300;0.394;2023-04-01T02:51:34;100069.69;;;12.47;58.58
17311;BME280;8773;43.300;0.394;2023-04-01T02:54:04;100078.06;;;12.43;58.91
17311;BME280;8773;43.300;0.394;2023-04-01T02:56:32;100068.09;;;12.54;58.03
17311;BME280;8773;43.300;0.394;2023-04-01T02:59:00;100062.09;;;12.60;58.08
17311;BME280;8773;43.300;0.394;2023-04-01T03:01:28;100062.25;;;12.58;57.43
17311;BME280;8773;43.300;0.394;2023-04-01T03:03:58;100069.47;;;12.58;57.42
17311;BME280;8773;43.300;0.394;2023-04-01T03:06:26;100062.63;;;12.63;56.99
17311;BME280;8773;43.300;0.394;2023-04-01T03:08:54;100051.28;;;12.43;57.11
17311;BME280;8773;43.300;0.394;2023-04-01T03:11:24;100051.06;;;12.29;57.54
17311;BME280;8773;43.300;0.394;2023-04-01T03:13:52;100048.75;;;12.42;56.79
17311;BME280;8773;43.300;0.394;2023-04-01T03:16:20;100050.78;;;12.48;56.39
17311;BME280;8773;43.300;0.394;2023-04-01T03:18:48;100051.53;;;12.24;56.87
17311;BME280;8773;43.300;0.394;2023-04-01T03:21:20;100053.94;;;12.35;57.75
17311;BME280;8773;43.300;0.394;2023-04-01T03:23:49;100058.25;;;12.28;57.80
17311;BME280;8773;43.300;0.394;2023-04-01T03:26:17;100051.13;;;12.45;57.33
17311;BME280;8773;43.300;0.394;2023-04-01T03:28:47;100059.31;;;12.69;56.28
17311;BME280;8773;43.300;0.394;2023-04-01T03:31:15;100059.41;;;12.60;56.97
17311;BME280;8773;43.300;0.394;2023-04-01T03:33:43;100055.06;;;12.59;56.88
17311;BME280;8773;43.300;0.394;2023-04-01T03:36:11;100058.47;;;12.69;56.02
17311;BME280;8773;43.300;0.394;2023-04-01T03:38:40;100053.78;;;12.71;55.98
17311;BME280;8773;43.300;0.394;2023-04-01T03:41:12;100038.53;;;12.71;55.72
17311;BME280;8773;43.300;0.394;2023-04-01T03:43:40;100046.50;;;12.55;56.23
17311;BME280;8773;43.300;0.394;2023-04-01T03:46:09;100048.34;;;12.55;56.72
17311;BME280;8773;43.300;0.394;2023-04-01T03:48:40;100041.66;;;12.59;56.29
17311;BME280;8773;43.300;0.394;2023-04-01T03:51:08;100040.66;;;12.60;55.91
17311;BME280;8773;43.300;0.394;2023-04-01T03:53:39;100033.34;;;12.70;55.76
17311;BME280;8773;43.300;0.394;2023-04-01T03:56:08;100038.38;;;12.73;55.64
17311;BME280;8773;43.300;0.394;2023-04-01T03:58:36;100036.06;;;12.86;54.95
17311;BME280;8773;43.300;0.394;2023-04-01T04:01:15;100040.56;;;12.86;55.41
17311;BME280;8773;43.300;0.394;2023-04-01T04:03:43;100037.72;;;12.37;56.86
17311;BME280;8773;43.300;0.394;2023-04-01T04:06:13;100035.34;;;12.08;57.91
17311;BME280;8773;43.300;0.394;2023-04-01T04:08:41;100049.75;;;12.07;57.77
17311;BME280;8773;43.300;0.394;2023-04-01T04:11:09;100041.50;;;12.26;57.51
17311;BME280;8773;43.300;0.394;2023-04-01T04:13:37;100038.88;;;12.34;57.54
17311;BME280;8773;43.300;0.394;2023-04-01T04:16:05;100047.59;;;12.36;57.46
17311;BME280;8773;43.300;0.394;2023-04-01T04:18:35;100043.91;;;12.37;56.88
17311;BME280;8773;43.300;0.394;2023-04-01T04:21:04;100036.88;;;12.45;56.24
17311;BME280;8773;43.300;0.394;2023-04-01T04:23:32;100041.41;;;12.44;57.29
17311;BME280;8773;43.300;0.394;2023-04-01T04:26:02;100045.75;;;12.11;57.79
17311;BME280;8773;43.300;0.394;2023-04-01T04:28:32;100049.75;;;12.33;56.96
17311;BME280;8773;43.300;0.394;2023-04-01T04:31:01;100046.75;;;12.44;56.98
17311;BME280;8773;43.300;0.394;2023-04-01T04:33:31;100041.22;;;12.37;56.49
17311;BME280;8773;43.300;0.394;2023-04-01T04:36:02;100041.59;;;12.51;56.99
17311;BME280;8773;43.300;0.394;2023-04-01T04:38:30;100043.31;;;12.52;56.11
17311;BME280;8773;43.300;0.394;2023-04-01T04:40:58;100034.97;;;12.55;56.09
17311;BME280;8773;43.300;0.394;2023-04-01T04:43:26;100050.13;;;12.46;57.28
17311;BME280;8773;43.300;0.394;2023-04-01T04:45:54;100043.50;;;12.58;56.58
17311;BME280;8773;43.300;0.394;2023-04-01T04:48:22;100048.94;;;12.49;57.50
17311;BME280;8773;43.300;0.394;2023-04-01T04:50:50;100043.84;;;12.55;56.71
17311;BME280;8773;43.300;0.394;2023-04-01T04:53:20;100044.06;;;12.70;56.90
17311;BME280;8773;43.300;0.394;2023-04-01T04:55:49;100047.78;;;12.77;56.49
17311;BME280;8773;43.300;0.394;2023-04-01T04:58:18;100045.19;;;12.59;57.15
17311;BME280;8773;43.300;0.394;2023-04-01T05:00:46;100044.34;;;12.59;56.94
17311;BME280;8773;43.300;0.394;2023-04-01T05:03:14;100054.44;;;12.65;56.29
17311;BME280;8773;43.300;0.394;2023-04-01T05:05:49;100048.06;;;12.66;56.20
17311;BME280;8773;43.300;0.394;2023-04-01T05:08:17;100058.09;;;12.64;56.26
17311;BME280;8773;43.300;0.394;2023-04-01T05:10:47;100064.66;;;12.69;57.09
17311;BME280;8773;43.300;0.394;2023-04-01T05:13:15;100068.84;;;12.72;56.33
17311;BME280;8773;43.300;0.394;2023-04-01T05:15:43;100062.47;;;12.65;57.16
17311;BME280;8773;43.300;0.394;2023-04-01T05:18:11;100067.78;;;12.57;58.08
17311;BME280;8773;43.300;0.394;2023-04-01T05:20:39;100063.66;;;12.45;58.13
17311;BME280;8773;43.300;0.394;2023-04-01T05:23:07;100075.13;;;12.55;57.48
17311;BME280;8773;43.300;0.394;2023-04-01T05:25:37;100078.50;;;12.57;57.39
17311;BME280;8773;43.300;0.394;2023-04-01T05:28:06;100079.22;;;12.67;56.98
17311;BME280;8773;43.300;0.394;2023-04-01T05:30:34;100080.56;;;12.45;57.61
17311;BME280;8773;43.300;0.394;2023-04-01T05:33:02;100076.19;;;12.10;58.22
17311;BME280;8773;43.300;0.394;2023-04-01T05:35:34;100079.97;;;12.25;57.90
17311;BME280;8773;43.300;0.394;2023-04-01T05:38:02;100083.88;;;12.31;57.16
17311;BME280;8773;43.300;0.394;2023-04-01T05:40:31;100089.06;;;12.32;58.05
17311;BME280;8773;43.300;0.394;2023-04-01T05:42:59;100088.59;;;12.37;57.63
17311;BME280;8773;43.300;0.394;2023-04-01T05:45:29;100088.53;;;12.55;57.05
17311;BME280;8773;43.300;0.394;2023-04-01T05:47:59;100098.00;;;12.49;58.03
17311;BME280;8773;43.300;0.394;2023-04-01T05:50:27;100098.25;;;12.56;57.04
17311;BME280;8773;43.300;0.394;2023-04-01T05:52:55;100096.78;;;12.43;57.33
17311;BME280;8773;43.300;0.394;2023-04-01T05:55:23;100098.31;;;12.38;57.81
17311;BME280;8773;43.300;0.394;2023-04-01T05:57:51;100095.78;;;12.36;58.12
17311;BME280;8773;43.300;0.394;2023-04-01T06:00:19;100092.66;;;12.49;58.03
17311;BME280;8773;43.300;0.394;2023-04-01T06:02:49;100092.09;;;12.63;58.07
17311;BME280;8773;43.300;0.394;2023-04-01T06:05:20;100094.88;;;12.54;57.92
17311;BME280;8773;43.300;0.394;2023-04-01T06:07:50;100098.91;;;12.58;57.32
17311;BME280;8773;43.300;0.394;2023-04-01T06:10:20;100099.00;;;12.74;57.06
17311;BME280;8773;43.300;0.394;2023-04-01T06:12:57;100096.03;;;12.93;56.54
17311;BME280;8773;43.300;0.394;2023-04-01T06:15:35;100091.41;;;13.03;56.55
17311;BME280;8773;43.300;0.394;2023-04-01T06:18:31;100091.94;;;13.15;55.77
17311;BME280;8773;43.300;0.394;2023-04-01T06:21:16;100088.38;;;12.98;56.13
17311;BME280;8773;43.300;0.394;2023-04-01T06:23:56;100091.06;;;13.06;56.22
17311;BME280;8773;43.300;0.394;2023-04-01T06:26:33;100095.63;;;13.14;56.30
17311;BME280;8773;43.300;0.394;2023-04-01T06:32:14;100096.75;;;12.61;57.77
17311;BME280;8773;43.300;0.394;2023-04-01T06:34:58;100094.84;;;12.80;56.99
17311;BME280;8773;43.300;0.394;2023-04-01T06:37:54;100094.59;;;13.07;56.86
17311;BME280;8773;43.300;0.394;2023-04-01T06:40:50;100093.28;;;13.19;56.23
17311;BME280;8773;43.300;0.394;2023-04-01T06:43:25;100100.06;;;12.89;57.17
17311;BME280;8773;43.300;0.394;2023-04-01T06:46:03;100091.34;;;12.87;57.79
17311;BME280;8773;43.300;0.394;2023-04-01T06:48:45;100087.34;;;12.91;57.69
17311;BME280;8773;43.300;0.394;2023-04-01T06:51:25;100079.66;;;12.96;57.53
17311;BME280;8773;43.300;0.394;2023-04-01T06:54:03;100087.75;;;13.13;56.89
17311;BME280;8773;43.300;0.394;2023-04-01T06:56:32;100081.50;;;13.04;56.83
17311;BME280;8773;43.300;0.394;2023-04-01T06:59:05;100096.69;;;12.79;57.92
17311;BME280;8773;43.300;0.394;2023-04-01T07:01:38;100083.00;;;12.98;57.53
17311;BME280;8773;43.300;0.394;2023-04-01T07:04:11;100092.56;;;13.01;57.15
17311;BME280;8773;43.300;0.394;2023-04-01T07:06:45;100092.78;;;13.16;56.53
17311;BME280;8773;43.300;0.394;2023-04-01T07:09:19;100097.81;;;13.35;56.69
17311;BME280;8773;43.300;0.394;2023-04-01T07:11:48;100087.91;;;13.27;56.17
17311;BME280;8773;43.300;0.394;2023-04-01T07:14:22;100085.97;;;12.87;57.24
17311;BME280;8773;43.300;0.394;2023-04-01T07:16:59;100086.41;;;13.17;56.96
17311;BME280;8773;43.300;0.394;2023-04-01T07:19:31;100084.81;;;13.72;55.45
17311;BME280;8773;43.300;0.394;2023-04-01T07:22:09;100080.25;;;14.14;54.41
17311;BME280;8773;43.300;0.394;2023-04-01T07:24:43;100076.44;;;13.92;55.02
17311;BME280;8773;43.300;0.394;2023-04-01T07:27:13;100073.91;;;14.06;55.23
17311;BME280;8773;43.300;0.394;2023-04-01T07:29:41;100071.06;;;14.00;55.55
17311;BME280;8773;43.300;0.394;2023-04-01T07:32:16;100072.72;;;14.01;55.27
17311;BME280;8773;43.300;0.394;2023-04-01T07:34:59;100084.09;;;14.19;54.26
17311;BME280;8773;43.300;0.394;2023-04-01T07:37:34;100071.47;;;14.44;53.65
17311;BME280;8773;43.300;0.394;2023-04-01T07:40:18;100073.91;;;15.01;51.55
17311;BME280;8773;43.300;0.394;2023-04-01T07:43:04;100059.56;;;15.62;49.80
17311;BME280;8773;43.300;0.394;2023-04-01T07:45:39;100064.09;;;16.52;47.20
17311;BME280;8773;43.300;0.394;2023-04-01T07:48:19;100059.97;;;16.85;46.55
17311;BME280;8773;43.300;0.394;2023-04-01T07:50:55;100051.88;;;17.00;45.39
17311;BME280;8773;43.300;0.394;2023-04-01T07:53:32;100047.97;;;17.24;45.02
17311;BME280;8773;43.300;0.394;2023-04-01T07:56:05;100050.63;;;17.38;45.01
17311;BME280;8773;43.300;0.394;2023-04-01T07:58:45;100041.16;;;17.07;44.74
17311;BME280;8773;43.300;0.394;2023-04-01T08:01:22;100044.09;;;16.76;44.88
17311;BME280;8773;43.300;0.394;2023-04-01T08:06:54;100057.13;;;16.28;46.34
17311;BME280;8773;43.300;0.394;2023-04-01T08:09:32;100055.56;;;15.96;47.76
17311;BME280;8773;43.300;0.394;2023-04-01T08:12:13;100049.25;;;15.89;47.76
17311;BME280;8773;43.300;0.394;2023-04-01T08:14:52;100060.56;;;15.61;47.30
17311;BME280;8773;43.300;0.394;2023-04-01T08:17:28;100059.78;;;15.53;48.37
17311;BME280;8773;43.300;0.394;2023-04-01T08:20:10;100050.72;;;15.77;48.16
17311;BME280;8773;43.300;0.394;2023-04-01T08:22:45;100048.19;;;15.52;48.17
17311;BME280;8773;43.300;0.394;2023-04-01T08:25:21;100045.38;;;15.23;48.12
17311;BME280;8773;43.300;0.394;2023-04-01T08:27:55;100050.81;;;15.15;48.58
17311;BME280;8773;43.300;0.394;2023-04-01T08:30:27;100053.72;;;14.66;49.43
17311;BME280;8773;43.300;0.394;2023-04-01T08:33:01;100048.56;;;14.56;49.48
17311;BME280;8773;43.300;0.394;2023-04-01T08:35:37;100042.28;;;14.80;49.35
17311;BME280;8773;43.300;0.394;2023-04-01T08:38:11;100043.47;;;14.69;48.15
17311;BME280;8773;43.300;0.394;2023-04-01T08:40:56;100051.47;;;14.94;48.07
17311;BME280;8773;43.300;0.394;2023-04-01T08:43:48;100041.06;;;14.91;48.51
17311;BME280;8773;43.300;0.394;2023-04-01T08:46:33;100042.13;;;14.65;47.99
17311;BME280;8773;43.300;0.394;2023-04-01T08:49:27;100042.38;;;14.56;48.09
17311;BME280;8773;43.300;0.394;2023-04-01T08:55:04;100048.94;;;14.53;48.42
17311;BME280;8773;43.300;0.394;2023-04-01T08:57:56;100044.63;;;14.83;47.97
17311;BME280;8773;43.300;0.394;2023-04-01T09:00:31;100089.50;;;14.75;48.98
17311;BME280;8773;43.300;0.394;2023-04-01T09:03:18;100070.69;;;13.38;58.27
17311;BME280;8773;43.300;0.394;2023-04-01T09:08:58;100072.00;;;12.41;63.39
17311;BME280;8773;43.300;0.394;2023-04-01T09:11:39;100087.75;;;12.36;64.24
17311;BME280;8773;43.300;0.394;2023-04-01T09:14:29;100072.09;;;11.98;64.65
17311;BME280;8773;43.300;0.394;2023-04-01T09:20:24;100075.56;;;12.76;64.75
17311;BME280;8773;43.300;0.394;2023-04-01T09:23:14;100063.59;;;13.04;61.34
17311;BME280;8773;43.300;0.394;2023-04-01T09:25:58;100079.72;;;13.21;61.76
17311;BME280;8773;43.300;0.394;2023-04-01T09:28:37;100069.63;;;13.06;62.63
17311;BME280;8773;43.300;0.394;2023-04-01T09:31:25;100068.47;;;13.09;60.31
17311;BME280;8773;43.300;0.394;2023-04-01T09:34:21;100050.22;;;13.29;61.54
17311;BME280;8773;43.300;0.394;2023-04-01T09:37:17;100060.81;;;13.79;59.15
17311;BME280;8773;43.300;0.394;2023-04-01T09:39:54;100064.28;;;14.20;59.14
17311;BME280;8773;43.300;0.394;2023-04-01T09:42:44;100060.25;;;14.71;56.95
17311;BME280;8773;43.300;0.394;2023-04-01T09:45:28;100056.56;;;14.81;55.69
17311;BME280;8773;43.300;0.394;2023-04-01T09:48:12;100069.38;;;14.62;54.50
17311;BME280;8773;43.300;0.394;2023-04-01T09:50:48;100056.56;;;14.81;55.61
17311;BME280;8773;43.300;0.394;2023-04-01T09:53:32;100054.41;;;14.68;55.81
17311;BME280;8773;43.300;0.394;2023-04-01T09:59:48;100033.31;;;15.19;53.69
17311;BME280;8773;43.300;0.394;2023-04-01T10:09:04;100012.84;;;15.55;50.65
17311;BME280;8773;43.300;0.394;2023-04-01T10:18:05;100002.66;;;16.03;50.45
17311;BME280;8773;43.300;0.394;2023-04-01T10:20:55;100007.31;;;15.71;49.53
17311;BME280;8773;43.300;0.394;2023-04-01T10:23:45;99988.56;;;15.63;49.59
17311;BME280;8773;43.300;0.394;2023-04-01T10:26:37;99985.28;;;15.91;48.88
17311;BME280;8773;43.300;0.394;2023-04-01T10:29:42;99985.28;;;15.53;49.24
17311;BME280;8773;43.300;0.394;2023-04-01T10:32:45;99980.91;;;15.90;49.14
17311;BME280;8773;43.300;0.394;2023-04-01T10:35:54;99979.16;;;15.97;48.83
17311;BME280;8773;43.300;0.394;2023-04-01T10:44:51;100060.25;;;13.27;54.20
17311;BME280;8773;43.300;0.394;2023-04-01T10:48:04;100038.13;;;12.24;58.63
17311;BME280;8773;43.300;0.394;2023-04-01T10:53:50;100062.06;;;12.00;60.03
17311;BME280;8773;43.300;0.394;2023-04-01T10:56:39;100068.50;;;11.63;61.17
17311;BME280;8773;43.300;0.394;2023-04-01T11:09:26;100068.78;;;11.60;65.04
17311;BME280;8773;43.300;0.394;2023-04-01T11:15:37;100091.25;;;12.11;64.42
17311;BME280;8773;43.300;0.394;2023-04-01T11:21:50;100115.34;;;10.40;73.30
17311;BME280;8773;43.300;0.394;2023-04-01T11:24:34;100112.09;;;10.46;73.90
17311;BME280;8773;43.300;0.394;2023-04-01T11:27:21;100118.81;;;10.13;74.63
17311;BME280;8773;43.300;0.394;2023-04-01T11:30:14;100099.91;;;10.34;72.83
17311;BME280;8773;43.300;0.394;2023-04-01T11:32:57;100097.41;;;10.32;71.70
17311;BME280;8773;43.300;0.394;2023-04-01T11:38:42;100097.97;;;10.26;68.92
17311;BME280;8773;43.300;0.394;2023-04-01T11:41:25;100094.56;;;10.71;70.64
17311;BME280;8773;43.300;0.394;2023-04-01T11:44:11;100088.53;;;10.69;69.17
17311;BME280;8773;43.300;0.394;2023-04-01T11:46:52;100088.72;;;10.85;69.00
17311;BME280;8773;43.300;0.394;2023-04-01T11:49:36;100086.72;;;11.15;65.63
17311;BME280;8773;43.300;0.394;2023-04-01T11:52:30;100079.38;;;11.44;67.59
17311;BME280;8773;43.300;0.394;2023-04-01T11:55:16;100082.56;;;11.65;63.86
17311;BME280;8773;43.300;0.394;2023-04-01T11:57:56;100071.06;;;11.91;64.00
17311;BME280;8773;43.300;0.394;2023-04-01T12:00:40;100067.25;;;11.75;63.30
17311;BME280;8773;43.300;0.394;2023-04-01T12:06:16;100051.22;;;11.58;62.56
17311;BME280;8773;43.300;0.394;2023-04-01T12:08:54;100060.47;;;11.63;63.83
17311;BME280;8773;43.300;0.394;2023-04-01T12:11:33;100055.50;;;11.68;62.97
17311;BME280;8773;43.300;0.394;2023-04-01T12:14:08;100051.28;;;11.66;62.27
17311;BME280;8773;43.300;0.394;2023-04-01T12:16:56;100042.22;;;11.59;62.29
17311;BME280;8773;43.300;0.394;2023-04-01T12:19:35;100045.59;;;11.87;60.94
17311;BME280;8773;43.300;0.394;2023-04-01T12:22:22;100037.34;;;12.06;62.21
17311;BME280;8773;43.300;0.394;2023-04-01T12:24:57;100048.38;;;12.03;60.59
17311;BME280;8773;43.300;0.394;2023-04-01T12:27:39;100044.34;;;12.59;59.50
17311;BME280;8773;43.300;0.394;2023-04-01T12:30:30;100039.09;;;12.49;58.53
17311;BME280;8773;43.300;0.394;2023-04-01T12:33:20;100042.88;;;12.64;59.77
17311;BME280;8773;43.300;0.394;2023-04-01T12:35:59;100033.53;;;12.77;59.24
17311;BME280;8773;43.300;0.394;2023-04-01T12:38:36;100031.69;;;12.77;58.97
17311;BME280;8773;43.300;0.394;2023-04-01T12:41:14;100021.97;;;12.76;59.70
17311;BME280;8773;43.300;0.394;2023-04-01T12:44:04;100023.59;;;12.61;59.06
17311;BME280;8773;43.300;0.394;2023-04-01T12:46:47;100014.88;;;12.25;59.70
17311;BME280;8773;43.300;0.394;2023-04-01T12:49:34;100011.88;;;12.62;59.49
17311;BME280;8773;43.300;0.394;2023-04-01T12:52:10;100008.19;;;12.63;59.38
17311;BME280;8773;43.300;0.394;2023-04-01T12:55:09;99994.88;;;12.45;59.25
17311;BME280;8773;43.300;0.394;2023-04-01T13:01:03;99991.22;;;13.29;58.64
17311;BME280;8773;43.300;0.394;2023-04-01T13:03:50;99977.81;;;13.45;58.47
17311;BME280;8773;43.300;0.394;2023-04-01T13:06:34;99981.16;;;13.63;57.53
17311;BME280;8773;43.300;0.394;2023-04-01T13:09:20;99977.78;;;13.86;56.73
17311;BME280;8773;43.300;0.394;2023-04-01T13:12:10;99975.25;;;14.39;56.01
17311;BME280;8773;43.300;0.394;2023-04-01T13:15:09;99958.78;;;14.43;55.25
17311;BME280;8773;43.300;0.394;2023-04-01T13:17:47;99966.84;;;14.43;52.24
17311;BME280;8773;43.300;0.394;2023-04-01T13:20:28;99964.34;;;14.41;53.52
17311;BME280;8773;43.300;0.394;2023-04-01T13:23:09;99971.63;;;14.24;54.26
17311;BME280;8773;43.300;0.394;2023-04-01T13:25:45;99962.72;;;14.24;53.28
17311;BME280;8773;43.300;0.394;2023-04-01T13:28:25;99973.81;;;14.60;51.81
17311;BME280;8773;43.300;0.394;2023-04-01T13:31:02;99959.00;;;14.33;51.76
17311;BME280;8773;43.300;0.394;2023-04-01T13:33:38;99963.53;;;14.32;53.01
17311;BME280;8773;43.300;0.394;2023-04-01T13:36:17;99967.66;;;14.51;52.42
17311;BME280;8773;43.300;0.394;2023-04-01T13:39:06;99958.34;;;14.62;50.50
17311;BME280;8773;43.300;0.394;2023-04-01T13:41:49;99952.56;;;14.73;51.57
17311;BME280;8773;43.300;0.394;2023-04-01T13:44:29;99948.31;;;14.56;53.17
17311;BME280;8773;43.300;0.394;2023-04-01T13:50:26;99959.16;;;13.92;54.03
17311;BME280;8773;43.300;0.394;2023-04-01T13:53:17;99953.50;;;13.63;55.27
17311;BME280;8773;43.300;0.394;2023-04-01T13:56:00;99960.06;;;13.12;55.80
17311;BME280;8773;43.300;0.394;2023-04-01T13:58:43;99958.34;;;12.86;57.62
17311;BME280;8773;43.300;0.394;2023-04-01T14:01:17;99964.88;;;12.76;60.74
17311;BME280;8773;43.300;0.394;2023-04-01T14:04:20;99967.47;;;12.51;61.57
17311;BME280;8773;43.300;0.394;2023-04-01T14:07:00;99974.13;;;12.39;60.89
17311;BME280;8773;43.300;0.394;2023-04-01T14:09:59;99979.25;;;11.98;63.03
17311;BME280;8773;43.300;0.394;2023-04-01T14:12:36;99985.63;;;11.71;63.56
17311;BME280;8773;43.300;0.394;2023-04-01T14:15:25;100002.56;;;11.54;65.70
17311;BME280;8773;43.300;0.394;2023-04-01T14:18:08;99999.53;;;11.49;68.69
17311;BME280;8773;43.300;0.394;2023-04-01T14:20:40;99999.53;;;11.49;68.46
17311;BME280;8773;43.300;0.394;2023-04-01T14:23:36;99991.09;;;11.62;68.34
17311;BME280;8773;43.300;0.394;2023-04-01T14:29:30;99977.56;;;11.89;65.97
17311;BME280;8773;43.300;0.394;2023-04-01T14:32:10;99980.94;;;11.91;65.83
17311;BME280;8773;43.300;0.394;2023-04-01T14:34:53;99985.84;;;11.78;64.72
17311;BME280;8773;43.300;0.394;2023-04-01T14:40:45;100008.47;;;11.84;63.79
17311;BME280;8773;43.300;0.394;2023-04-01T14:43:47;100002.19;;;11.93;63.25
17311;BME280;8773;43.300;0.394;2023-04-01T14:49:35;100030.34;;;11.61;63.42
17311;BME280;8773;43.300;0.394;2023-04-01T14:52:08;100023.06;;;11.46;64.52
17311;BME280;8773;43.300;0.394;2023-04-01T14:54:40;100034.09;;;11.15;64.46
17311;BME280;8773;43.300;0.394;2023-04-01T14:57:12;100046.31;;;11.00;66.65
17311;BME280;8773;43.300;0.394;2023-04-01T14:59:46;100055.97;;;10.83;67.17
17311;BME280;8773;43.300;0.394;2023-04-01T15:02:37;100052.91;;;10.60;68.16
17311;BME280;8773;43.300;0.394;2023-04-01T15:05:15;100069.91;;;10.59;68.75
17311;BME280;8773;43.300;0.394;2023-04-01T15:11:11;100110.22;;;10.19;71.03
17311;BME280;8773;43.300;0.394;2023-04-01T15:16:57;100083.47;;;9.43;72.46
17311;BME280;8773;43.300;0.394;2023-04-01T15:19:38;100113.66;;;9.34;70.00